sensor_id;sensor_type;location;lat;lon;timestamp;pressure;altitude;pressure_sealevel;temperature;humidity
64889;BME280;51386;53.082;8.816;2022-07-23T00:00:32;101776.50;;;23.51;46.49
64889;BME280;51386;53.082;8.816;2022-07-23T00:03:05;101779.91;;;23.46;46.83
64889;BME280;51386;53.082;8.816;2022-07-23T00:05:33;101769.88;;;23.42;46.86
64889;BME280;51386;53.082;8.816;2022-07-23T00:08:01;101774.66;;;23.40;47.02
64889;BME280;51386;53.082;8.816;2022-07-23T00:10:29;101779.22;;;23.39;46.98
64889;BME280;51386;53.082;8.816;2022-07-23T00:12:57;101781.31;;;23.37;46.89
64889;BME280;51386;53.082;8.816;2022-07-23T00:15:25;101773.91;;;23.33;46.97
64889;BME280;51386;53.082;8.816;2022-07-23T00:17:52;101772.97;;;23.27;46.91
64889;BME280;51386;53.082;8.816;2022-07-23T00:20:20;101759.66;;;23.21;47.07
64889;BME280;51386;53.082;8.816;2022-07-23T00:22:48;101774.03;;;23.15;47.08
64889;BME280;51386;53.082;8.816;2022-07-23T00:25:15;101769.56;;;23.09;47.43
64889;BME280;51386;53.082;8.816;2022-07-23T00:28:02;101769.69;;;23.02;47.44
64889;BME280;51386;53.082;8.816;2022-07-23T00:30:31;101771.78;;;23.00;47.81
64889;BME280;51386;53.082;8.816;2022-07-23T00:33:01;101770.50;;;23.03;47.94
64889;BME280;51386;53.082;8.816;2022-07-23T00:35:32;101772.97;;;23.04;47.84
64889;BME280;51386;53.082;8.816;2022-07-23T00:38:01;101774.94;;;23.09;47.94
64889;BME280;51386;53.082;8.816;2022-07-23T00:40:30;101776.13;;;23.13;47.20
64889;BME280;51386;53.082;8.816;2022-07-23T00:42:57;101775.66;;;23.16;47.78
64889;BME280;51386;53.082;8.816;2022-07-23T00:45:28;101776.84;;;23.20;47.47
64889;BME280;51386;53.082;8.816;2022-07-23T00:47:55;101769.94;;;23.24;47.31
64889;BME280;51386;53.082;8.816;2022-07-23T00:50:23;101772.97;;;23.27;47.37
64889;BME280;51386;53.082;8.816;2022-07-23T00:52:53;101767.97;;;23.31;47.13
64889;BME280;51386;53.082;8.816;2022-07-23T00:55:20;101768.13;;;23.36;47.35
64889;BME280;51386;53.082;8.816;2022-07-23T00:57:50;101773.63;;;23.41;47.09
64889;BME280;51386;53.082;8.816;2022-07-23T01:00:18;101769.88;;;23.42;47.10
64889;BME280;51386;53.082;8.816;2022-07-23T01:02:46;101766.13;;;23.43;47.00
64889;BME280;51386;53.082;8.816;2022-07-23T01:05:15;101766.13;;;23.43;46.95
64889;BME280;51386;53.082;8.816;2022-07-23T01:07:43;101762.88;;;23.41;47.07
64889;BME280;51386;53.082;8.816;2022-07-23T01:10:10;101762.88;;;23.41;46.93
64889;BME280;51386;53.082;8.816;2022-07-23T01:12:56;101754.28;;;23.32;47.06
64889;BME280;51386;53.082;8.816;2022-07-23T01:15:24;101752.31;;;23.28;47.30
64889;BME280;51386;53.082;8.816;2022-07-23T01:17:53;101750.09;;;23.25;47.48
64889;BME280;51386;53.082;8.816;2022-07-23T01:20:21;101744.13;;;23.23;47.73
64889;BME280;51386;53.082;8.816;2022-07-23T01:22:52;101738.75;;;23.23;47.78
64889;BME280;51386;53.082;8.816;2022-07-23T01:25:19;101739.34;;;23.25;47.78
64889;BME280;51386;53.082;8.816;2022-07-23T01:27:47;101730.22;;;23.26;47.69
64889;BME280;51386;53.082;8.816;2022-07-23T01:30:15;101741.56;;;23.28;47.67
64889;BME280;51386;53.082;8.816;2022-07-23T01:32:43;101744.13;;;23.23;47.60
64889;BME280;51386;53.082;8.816;2022-07-23T01:35:10;101739.69;;;23.17;47.91
64889;BME280;51386;53.082;8.816;2022-07-23T01:37:38;101753.81;;;23.12;47.71
64889;BME280;51386;53.082;8.816;2022-07-23T01:40:07;101750.19;;;23.07;48.02
64889;BME280;51386;53.082;8.816;2022-07-23T01:42:35;101735.81;;;23.01;48.25
64889;BME280;51386;53.082;8.816;2022-07-23T01:45:05;101737.69;;;23.01;48.40
64889;BME280;51386;53.082;8.816;2022-07-23T01:47:33;101731.75;;;22.99;48.47
64889;BME280;51386;53.082;8.816;2022-07-23T01:50:00;101735.47;;;22.98;48.80
64889;BME280;51386;53.082;8.816;2022-07-23T01:52:27;101739.19;;;22.97;48.79
64889;BME280;51386;53.082;8.816;2022-07-23T01:54:55;101746.22;;;22.98;48.83
64889;BME280;51386;53.082;8.816;2022-07-23T01:57:23;101743.53;;;22.98;48.80
64889;BME280;51386;53.082;8.816;2022-07-23T01:59:51;101739.19;;;22.97;48.83
64889;BME280;51386;53.082;8.816;2022-07-23T02:02:18;101726.00;;;22.95;48.78
64889;BME280;51386;53.082;8.816;2022-07-23T02:04:46;101727.53;;;22.91;48.88
64889;BME280;51386;53.082;8.816;2022-07-23T02:07:13;101732.31;;;22.89;48.95
64889;BME280;51386;53.082;8.816;2022-07-23T02:09:40;101721.78;;;22.87;49.18
64889;BME280;51386;53.082;8.816;2022-07-23T02:12:08;101712.69;;;22.88;49.11
64889;BME280;51386;53.082;8.816;2022-07-23T02:14:37;101712.25;;;22.92;49.07
64889;BME280;51386;53.082;8.816;2022-07-23T02:17:05;101705.22;;;22.90;49.17
64889;BME280;51386;53.082;8.816;2022-07-23T02:19:32;101704.50;;;22.95;48.93
64889;BME280;51386;53.082;8.816;2022-07-23T02:22:00;101715.63;;;22.99;49.00
64889;BME280;51386;53.082;8.816;2022-07-23T02:24:27;101714.31;;;23.01;48.98
64889;BME280;51386;53.082;8.816;2022-07-23T02:26:55;101710.25;;;22.99;48.81
64889;BME280;51386;53.082;8.816;2022-07-23T02:29:22;101704.50;;;22.95;48.86
64889;BME280;51386;53.082;8.816;2022-07-23T02:31:51;101697.50;;;22.94;49.19
64889;BME280;51386;53.082;8.816;2022-07-23T02:34:18;101695.63;;;22.95;49.28
64889;BME280;51386;53.082;8.816;2022-07-23T02:36:45;101692.94;;;22.95;49.37
64889;BME280;51386;53.082;8.816;2022-07-23T02:39:13;101688.41;;;22.95;49.42
64889;BME280;51386;53.082;8.816;2022-07-23T02:41:41;101688.78;;;22.99;49.24
64889;BME280;51386;53.082;8.816;2022-07-23T02:44:08;101683.50;;;23.04;49.18
64889;BME280;51386;53.082;8.816;2022-07-23T02:46:36;101691.09;;;23.07;49.19
64889;BME280;51386;53.082;8.816;2022-07-23T02:49:04;101686.88;;;23.11;49.13
64889;BME280;51386;53.082;8.816;2022-07-23T02:51:33;101684.81;;;23.13;48.81
64889;BME280;51386;53.082;8.816;2022-07-23T02:54:00;101690.16;;;23.13;49.02
64889;BME280;51386;53.082;8.816;2022-07-23T02:56:28;101693.91;;;23.12;48.95
64889;BME280;51386;53.082;8.816;2022-07-23T02:58:55;101693.56;;;23.08;49.00
64889;BME280;51386;53.082;8.816;2022-07-23T03:01:22;101695.44;;;23.08;49.16
64889;BME280;51386;53.082;8.816;2022-07-23T03:03:50;101692.16;;;23.06;48.81
64889;BME280;51386;53.082;8.816;2022-07-23T03:06:19;101699.03;;;23.02;48.62
64889;BME280;51386;53.082;8.816;2022-07-23T03:08:47;101697.28;;;22.96;48.92
64889;BME280;51386;53.082;8.816;2022-07-23T03:11:14;101684.78;;;22.89;49.26
64889;BME280;51386;53.082;8.816;2022-07-23T03:13:43;101691.91;;;22.84;49.39
64889;BME280;51386;53.082;8.816;2022-07-23T03:16:11;101689.09;;;22.79;49.32
64889;BME280;51386;53.082;8.816;2022-07-23T03:18:38;101680.91;;;22.74;48.99
64889;BME280;51386;53.082;8.816;2022-07-23T03:21:07;101672.97;;;22.67;48.91
64889;BME280;51386;53.082;8.816;2022-07-23T03:23:36;101679.81;;;22.63;49.71
64889;BME280;51386;53.082;8.816;2022-07-23T03:26:04;101678.63;;;22.59;49.73
64889;BME280;51386;53.082;8.816;2022-07-23T03:28:31;101676.19;;;22.58;49.20
64889;BME280;51386;53.082;8.816;2022-07-23T03:30:59;101674.19;;;22.53;49.29
64889;BME280;51386;53.082;8.816;2022-07-23T03:33:26;101684.81;;;22.48;49.57
64889;BME280;51386;53.082;8.816;2022-07-23T03:35:54;101682.56;;;22.45;49.58
64889;BME280;51386;53.082;8.816;2022-07-23T03:38:22;101686.28;;;22.44;49.75
64889;BME280;51386;53.082;8.816;2022-07-23T03:40:51;101681.97;;;22.43;49.62
64889;BME280;51386;53.082;8.816;2022-07-23T03:43:18;101685.25;;;22.45;49.65
64889;BME280;51386;53.082;8.816;2022-07-23T03:45:46;101688.97;;;22.44;49.93
64889;BME280;51386;53.082;8.816;2022-07-23T03:48:16;101688.38;;;22.42;49.63
64889;BME280;51386;53.082;8.816;2022-07-23T03:50:43;101690.94;;;22.37;49.58
64889;BME280;51386;53.082;8.816;2022-07-23T03:53:10;101688.72;;;22.34;49.69
64889;BME280;51386;53.082;8.816;2022-07-23T03:55:38;101697.81;;;22.33;49.87
64889;BME280;51386;53.082;8.816;2022-07-23T03:58:06;101690.22;;;22.30;49.82
64889;BME280;51386;53.082;8.816;2022-07-23T04:00:34;101691.03;;;22.31;50.17
64889;BME280;51386;53.082;8.816;2022-07-23T04:03:01;101691.28;;;22.29;49.94
64889;BME280;51386;53.082;8.816;2022-07-23T04:05:28;101684.72;;;22.25;49.66
64889;BME280;51386;53.082;8.816;2022-07-23T04:07:56;101694.25;;;22.21;50.22
64889;BME280;51386;53.082;8.816;2022-07-23T04:10:23;101690.41;;;22.17;50.00
64889;BME280;51386;53.082;8.816;2022-07-23T04:12:50;101692.94;;;22.12;50.15
64889;BME280;51386;53.082;8.816;2022-07-23T04:15:19;101694.91;;;22.05;49.87
64889;BME280;51386;53.082;8.816;2022-07-23T04:17:47;101693.72;;;22.01;50.28
64889;BME280;51386;53.082;8.816;2022-07-23T04:20:14;101694.63;;;21.95;50.15
64889;BME280;51386;53.082;8.816;2022-07-23T04:22:41;101695.88;;;21.92;50.48
64889;BME280;51386;53.082;8.816;2022-07-23T04:25:09;101703.09;;;21.92;50.23
64889;BME280;51386;53.082;8.816;2022-07-23T04:27:36;101705.66;;;21.87;50.39
64889;BME280;51386;53.082;8.816;2022-07-23T04:30:05;101705.50;;;21.82;50.40
64889;BME280;51386;53.082;8.816;2022-07-23T04:32:34;101708.22;;;21.75;50.69
64889;BME280;51386;53.082;8.816;2022-07-23T04:35:01;101704.38;;;21.71;51.11
64889;BME280;51386;53.082;8.816;2022-07-23T04:37:29;101706.69;;;21.68;50.97
64889;BME280;51386;53.082;8.816;2022-07-23T04:39:56;101712.50;;;21.65;51.38
64889;BME280;51386;53.082;8.816;2022-07-23T04:42:24;101708.38;;;21.62;51.54
64889;BME280;51386;53.082;8.816;2022-07-23T04:44:51;101711.31;;;21.61;51.46
64889;BME280;51386;53.082;8.816;2022-07-23T04:47:18;101717.69;;;21.59;51.94
64889;BME280;51386;53.082;8.816;2022-07-23T04:49:50;101718.94;;;21.57;51.78
64889;BME280;51386;53.082;8.816;2022-07-23T04:52:17;101706.38;;;21.57;51.90
64889;BME280;51386;53.082;8.816;2022-07-23T04:54:44;101709.66;;;21.59;51.93
64889;BME280;51386;53.082;8.816;2022-07-23T04:57:12;101708.00;;;21.58;52.16
64889;BME280;51386;53.082;8.816;2022-07-23T04:59:39;101712.56;;;21.58;51.87
64889;BME280;51386;53.082;8.816;2022-07-23T05:02:06;101710.91;;;21.57;52.26
64889;BME280;51386;53.082;8.816;2022-07-23T05:04:34;101720.59;;;21.58;52.32
64889;BME280;51386;53.082;8.816;2022-07-23T05:07:03;101718.72;;;21.58;52.28
64889;BME280;51386;53.082;8.816;2022-07-23T05:09:30;101727.38;;;21.61;52.34
64889;BME280;51386;53.082;8.816;2022-07-23T05:11:58;101723.06;;;21.59;52.27
64889;BME280;51386;53.082;8.816;2022-07-23T05:14:25;101714.19;;;21.59;52.58
64889;BME280;51386;53.082;8.816;2022-07-23T05:16:53;101724.22;;;21.64;52.42
64889;BME280;51386;53.082;8.816;2022-07-23T05:19:21;101717.84;;;21.65;52.03
64889;BME280;51386;53.082;8.816;2022-07-23T05:21:51;101726.72;;;21.65;52.09
64889;BME280;51386;53.082;8.816;2022-07-23T05:24:20;101728.13;;;21.68;52.30
64889;BME280;51386;53.082;8.816;2022-07-23T05:26:47;101723.22;;;21.65;51.45
64889;BME280;51386;53.082;8.816;2022-07-23T05:29:15;101727.38;;;21.61;52.03
64889;BME280;51386;53.082;8.816;2022-07-23T05:31:43;101729.00;;;21.62;51.99
64889;BME280;51386;53.082;8.816;2022-07-23T05:34:11;101720.28;;;21.66;52.11
64889;BME280;51386;53.082;8.816;2022-07-23T05:36:44;101713.66;;;21.69;51.42
64889;BME280;51386;53.082;8.816;2022-07-23T05:39:11;101721.84;;;21.74;51.25
64889;BME280;51386;53.082;8.816;2022-07-23T05:41:40;101723.03;;;21.78;51.21
64889;BME280;51386;53.082;8.816;2022-07-23T05:44:09;101730.66;;;21.81;51.70
64889;BME280;51386;53.082;8.816;2022-07-23T05:46:36;101736.59;;;21.83;51.34
64889;BME280;51386;53.082;8.816;2022-07-23T05:49:03;101744.81;;;21.88;51.44
64889;BME280;51386;53.082;8.816;2022-07-23T05:51:32;101733.22;;;21.94;50.75
64889;BME280;51386;53.082;8.816;2022-07-23T05:53:59;101739.31;;;22.01;50.91
64889;BME280;51386;53.082;8.816;2022-07-23T05:56:27;101738.78;;;22.10;50.80
64889;BME280;51386;53.082;8.816;2022-07-23T05:58:55;101744.56;;;22.25;50.67
64889;BME280;51386;53.082;8.816;2022-07-23T06:01:23;101741.47;;;22.40;49.94
64889;BME280;51386;53.082;8.816;2022-07-23T06:03:50;101743.50;;;22.56;49.66
64889;BME280;51386;53.082;8.816;2022-07-23T06:06:18;101742.19;;;22.65;49.29
64889;BME280;51386;53.082;8.816;2022-07-23T06:08:45;101742.66;;;22.74;48.76
64889;BME280;51386;53.082;8.816;2022-07-23T06:11:12;101747.22;;;22.85;48.80
64889;BME280;51386;53.082;8.816;2022-07-23T06:13:40;101758.59;;;22.99;48.56
64889;BME280;51386;53.082;8.816;2022-07-23T06:16:09;101761.31;;;23.10;48.25
64889;BME280;51386;53.082;8.816;2022-07-23T06:18:36;101768.19;;;23.18;47.93
64889;BME280;51386;53.082;8.816;2022-07-23T06:21:04;101760.25;;;23.23;47.86
64889;BME280;51386;53.082;8.816;2022-07-23T06:23:51;101759.44;;;23.22;47.46
64889;BME280;51386;53.082;8.816;2022-07-23T06:26:19;101764.81;;;23.22;47.52
64889;BME280;51386;53.082;8.816;2022-07-23T06:28:46;101761.88;;;23.24;47.47
64889;BME280;51386;53.082;8.816;2022-07-23T06:31:15;101768.22;;;23.29;47.53
64889;BME280;51386;53.082;8.816;2022-07-23T06:33:43;101766.94;;;23.32;47.52
64889;BME280;51386;53.082;8.816;2022-07-23T06:36:10;101762.59;;;23.31;47.45
64889;BME280;51386;53.082;8.816;2022-07-23T06:38:38;101766.31;;;23.30;47.62
64889;BME280;51386;53.082;8.816;2022-07-23T06:41:05;101770.91;;;23.29;47.35
64889;BME280;51386;53.082;8.816;2022-07-23T06:43:32;101776.72;;;23.26;47.48
64889;BME280;51386;53.082;8.816;2022-07-23T06:46:00;101772.06;;;23.22;47.16
64889;BME280;51386;53.082;8.816;2022-07-23T06:48:29;101776.47;;;23.16;47.45
64889;BME280;51386;53.082;8.816;2022-07-23T06:50:56;101786.41;;;23.16;47.32
64889;BME280;51386;53.082;8.816;2022-07-23T06:53:23;101778.59;;;23.14;47.45
64889;BME280;51386;53.082;8.816;2022-07-23T06:55:51;101777.31;;;23.17;47.39
64889;BME280;51386;53.082;8.816;2022-07-23T06:58:18;101771.47;;;23.20;47.22
64889;BME280;51386;53.082;8.816;2022-07-23T07:00:46;101777.44;;;23.33;47.23
64889;BME280;51386;53.082;8.816;2022-07-23T07:03:14;101771.06;;;23.46;46.90
64889;BME280;51386;53.082;8.816;2022-07-23T07:05:44;101772.91;;;23.57;46.52
64889;BME280;51386;53.082;8.816;2022-07-23T07:08:12;101780.25;;;23.62;45.97
64889;BME280;51386;53.082;8.816;2022-07-23T07:10:40;101775.13;;;23.60;45.47
64889;BME280;51386;53.082;8.816;2022-07-23T07:13:07;101774.19;;;23.54;45.22
64889;BME280;51386;53.082;8.816;2022-07-23T07:15:35;101775.72;;;23.50;44.96
64889;BME280;51386;53.082;8.816;2022-07-23T07:18:03;101771.75;;;23.53;44.91
64889;BME280;51386;53.082;8.816;2022-07-23T07:20:30;101768.34;;;23.58;45.18
64889;BME280;51386;53.082;8.816;2022-07-23T07:22:59;101766.22;;;23.71;44.68
64889;BME280;51386;53.082;8.816;2022-07-23T07:25:26;101764.34;;;23.83;44.68
64889;BME280;51386;53.082;8.816;2022-07-23T07:27:54;101768.97;;;23.99;44.53
64889;BME280;51386;53.082;8.816;2022-07-23T07:30:21;101768.03;;;24.17;44.25
64889;BME280;51386;53.082;8.816;2022-07-23T07:32:49;101772.31;;;24.30;43.27
64889;BME280;51386;53.082;8.816;2022-07-23T07:35:23;101767.69;;;24.42;43.48
64889;BME280;51386;53.082;8.816;2022-07-23T07:37:51;101767.06;;;24.51;42.65
64889;BME280;51386;53.082;8.816;2022-07-23T07:40:20;101764.25;;;24.58;42.65
64889;BME280;51386;53.082;8.816;2022-07-23T07:42:48;101768.75;;;24.69;42.17
64889;BME280;51386;53.082;8.816;2022-07-23T07:45:16;101775.84;;;24.75;41.57
64889;BME280;51386;53.082;8.816;2022-07-23T07:47:44;101770.72;;;24.73;41.37
64889;BME280;51386;53.082;8.816;2022-07-23T07:50:11;101775.53;;;24.71;42.03
64889;BME280;51386;53.082;8.816;2022-07-23T07:52:40;101770.47;;;24.75;41.90
64889;BME280;51386;53.082;8.816;2022-07-23T07:55:09;101774.09;;;24.80;42.08
64889;BME280;51386;53.082;8.816;2022-07-23T07:57:39;101773.47;;;24.90;42.39
64889;BME280;51386;53.082;8.816;2022-07-23T08:00:09;101786.84;;;25.02;41.83
64889;BME280;51386;53.082;8.816;2022-07-23T08:02:43;101775.75;;;25.15;41.59
64889;BME280;51386;53.082;8.816;2022-07-23T08:05:11;101785.38;;;25.27;41.90
64889;BME280;51386;53.082;8.816;2022-07-23T08:07:39;101785.53;;;25.37;41.88
64889;BME280;51386;53.082;8.816;2022-07-23T08:10:08;101792.66;;;25.43;41.09
64889;BME280;51386;53.082;8.816;2022-07-23T08:12:44;101794.38;;;25.49;40.96
64889;BME280;51386;53.082;8.816;2022-07-23T08:15:13;101797.25;;;25.60;41.05
64889;BME280;51386;53.082;8.816;2022-07-23T08:17:42;101797.88;;;25.67;41.67
64889;BME280;51386;53.082;8.816;2022-07-23T08:20:12;101797.31;;;25.65;41.35
64889;BME280;51386;53.082;8.816;2022-07-23T08:22:47;101800.91;;;25.53;41.22
64889;BME280;51386;53.082;8.816;2022-07-23T08:25:15;101801.22;;;25.40;40.88
64889;BME280;51386;53.082;8.816;2022-07-23T08:27:44;101792.91;;;25.25;41.60
64889;BME280;51386;53.082;8.816;2022-07-23T08:30:12;101803.03;;;25.18;41.83
64889;BME280;51386;53.082;8.816;2022-07-23T08:32:54;101797.63;;;25.18;41.25
64889;BME280;51386;53.082;8.816;2022-07-23T08:35:26;101793.53;;;25.32;41.96
64889;BME280;51386;53.082;8.816;2022-07-23T08:37:54;101799.69;;;25.44;41.56
64889;BME280;51386;53.082;8.816;2022-07-23T08:40:23;101814.31;;;25.48;41.15
64889;BME280;51386;53.082;8.816;2022-07-23T08:42:53;101816.31;;;25.53;41.78
64889;BME280;51386;53.082;8.816;2022-07-23T08:45:24;101814.47;;;25.59;41.65
64889;BME280;51386;53.082;8.816;2022-07-23T08:47:54;101813.66;;;25.58;40.88
64889;BME280;51386;53.082;8.816;2022-07-23T08:50:24;101811.84;;;25.64;40.87
64889;BME280;51386;53.082;8.816;2022-07-23T08:52:53;101817.00;;;25.65;40.68
64889;BME280;51386;53.082;8.816;2022-07-23T08:55:22;101814.97;;;25.55;40.59
64889;BME280;51386;53.082;8.816;2022-07-23T08:57:52;101821.84;;;25.46;40.47
64889;BME280;51386;53.082;8.816;2022-07-23T09:00:22;101817.81;;;25.32;41.04
64889;BME280;51386;53.082;8.816;2022-07-23T09:02:50;101829.97;;;25.18;40.90
64889;BME280;51386;53.082;8.816;2022-07-23T09:05:19;101833.00;;;25.05;40.95
64889;BME280;51386;53.082;8.816;2022-07-23T09:08:10;101819.75;;;24.87;40.83
64889;BME280;51386;53.082;8.816;2022-07-23T09:10:50;101824.22;;;24.81;41.56
64889;BME280;51386;53.082;8.816;2022-07-23T09:13:36;101823.88;;;24.78;41.92
64889;BME280;51386;53.082;8.816;2022-07-23T09:16:07;101826.69;;;24.83;41.71
64889;BME280;51386;53.082;8.816;2022-07-23T09:18:39;101819.66;;;24.99;41.82
64889;BME280;51386;53.082;8.816;2022-07-23T09:21:17;101812.34;;;25.27;40.83
64889;BME280;51386;53.082;8.816;2022-07-23T09:23:48;101811.69;;;25.53;40.02
64889;BME280;51386;53.082;8.816;2022-07-23T09:26:35;101809.72;;;25.66;40.15
64889;BME280;51386;53.082;8.816;2022-07-23T09:29:16;101815.75;;;25.73;39.71
64889;BME280;51386;53.082;8.816;2022-07-23T09:31:47;101818.41;;;25.89;38.66
64889;BME280;51386;53.082;8.816;2022-07-23T09:34:19;101815.34;;;26.19;38.69
64889;BME280;51386;53.082;8.816;2022-07-23T09:36:52;101812.84;;;26.61;37.81
64889;BME280;51386;53.082;8.816;2022-07-23T09:39:28;101816.72;;;26.97;36.96
64889;BME280;51386;53.082;8.816;2022-07-23T09:41:56;101821.88;;;27.30;36.11
64889;BME280;51386;53.082;8.816;2022-07-23T09:44:25;101816.25;;;27.73;35.98
64889;BME280;51386;53.082;8.816;2022-07-23T09:46:59;101826.88;;;28.37;35.13
64889;BME280;51386;53.082;8.816;2022-07-23T09:49:27;101808.56;;;28.79;33.98
64889;BME280;51386;53.082;8.816;2022-07-23T09:51:58;101807.50;;;29.05;33.94
64889;BME280;51386;53.082;8.816;2022-07-23T09:54:30;101811.25;;;29.65;32.65
64889;BME280;51386;53.082;8.816;2022-07-23T09:57:03;101809.97;;;31.19;30.73
64889;BME280;51386;53.082;8.816;2022-07-23T09:59:35;101813.13;;;32.49;29.17
64889;BME280;51386;53.082;8.816;2022-07-23T10:02:06;101809.91;;;33.63;27.34
64889;BME280;51386;53.082;8.816;2022-07-23T10:04:34;101819.81;;;33.86;26.73
64889;BME280;51386;53.082;8.816;2022-07-23T10:07:06;101810.50;;;34.14;25.77
64889;BME280;51386;53.082;8.816;2022-07-23T10:09:38;101814.50;;;35.02;24.55
64889;BME280;51386;53.082;8.816;2022-07-23T10:12:10;101820.25;;;34.92;25.24
64889;BME280;51386;53.082;8.816;2022-07-23T10:14:43;101812.41;;;34.77;25.06
64889;BME280;51386;53.082;8.816;2022-07-23T10:17:11;101820.75;;;34.22;25.04
64889;BME280;51386;53.082;8.816;2022-07-23T10:19:38;101810.66;;;33.36;25.28
64889;BME280;51386;53.082;8.816;2022-07-23T10:22:10;101821.47;;;32.58;26.25
64889;BME280;51386;53.082;8.816;2022-07-23T10:24:52;101819.09;;;31.85;27.59
64889;BME280;51386;53.082;8.816;2022-07-23T10:28:02;101820.25;;;31.22;28.07
64889;BME280;51386;53.082;8.816;2022-07-23T10:30:45;101819.44;;;30.88;28.54
64889;BME280;51386;53.082;8.816;2022-07-23T10:33:30;101812.03;;;30.54;28.33
64889;BME280;51386;53.082;8.816;2022-07-23T10:36:11;101820.38;;;30.14;29.67
64889;BME280;51386;53.082;8.816;2022-07-23T10:38:52;101823.75;;;29.66;30.00
64889;BME280;51386;53.082;8.816;2022-07-23T10:41:32;101822.16;;;29.19;30.40
64889;BME280;51386;53.082;8.816;2022-07-23T10:44:12;101826.47;;;28.80;31.29
64889;BME280;51386;53.082;8.816;2022-07-23T10:46:59;101834.50;;;28.50;31.93
64889;BME280;51386;53.082;8.816;2022-07-23T10:49:45;101825.00;;;28.42;31.95
64889;BME280;51386;53.082;8.816;2022-07-23T10:52:26;101821.53;;;28.67;32.14
64889;BME280;51386;53.082;8.816;2022-07-23T10:54:56;101832.47;;;29.07;31.92
64889;BME280;51386;53.082;8.816;2022-07-23T10:57:50;101830.03;;;29.46;31.27
64889;BME280;51386;53.082;8.816;2022-07-23T11:00:22;101825.41;;;29.57;31.16
64889;BME280;51386;53.082;8.816;2022-07-23T11:02:53;101828.66;;;29.48;30.77
64889;BME280;51386;53.082;8.816;2022-07-23T11:05:23;101818.38;;;29.30;31.06
64889;BME280;51386;53.082;8.816;2022-07-23T11:08:17;101816.72;;;29.04;31.04
64889;BME280;51386;53.082;8.816;2022-07-23T11:10:49;101817.53;;;28.95;31.32
64889;BME280;51386;53.082;8.816;2022-07-23T11:13:54;101824.28;;;28.72;31.43
64889;BME280;51386;53.082;8.816;2022-07-23T11:16:24;101817.25;;;28.76;31.38
64889;BME280;51386;53.082;8.816;2022-07-23T11:19:11;101816.97;;;28.72;31.29
64889;BME280;51386;53.082;8.816;2022-07-23T11:21:50;101822.66;;;28.71;31.19
64889;BME280;51386;53.082;8.816;2022-07-23T11:24:21;101822.66;;;28.66;30.94
64889;BME280;51386;53.082;8.816;2022-07-23T11:26:53;101825.63;;;28.59;31.02
64889;BME280;51386;53.082;8.816;2022-07-23T11:32:38;101822.59;;;28.56;31.08
64889;BME280;51386;53.082;8.816;2022-07-23T11:35:26;101821.03;;;28.75;31.12
64889;BME280;51386;53.082;8.816;2022-07-23T11:38:06;101817.53;;;28.90;30.70
64889;BME280;51386;53.082;8.816;2022-07-23T11:40:35;101818.63;;;28.99;30.68
64889;BME280;51386;53.082;8.816;2022-07-23T11:43:05;101823.50;;;29.12;30.35
64889;BME280;51386;53.082;8.816;2022-07-23T11:45:38;101820.81;;;29.27;30.75
64889;BME280;51386;53.082;8.816;2022-07-23T11:48:09;101824.06;;;29.34;30.01
64889;BME280;51386;53.082;8.816;2022-07-23T11:50:38;101830.84;;;29.26;30.94
64889;BME280;51386;53.082;8.816;2022-07-23T11:53:05;101823.22;;;29.08;30.88
64889;BME280;51386;53.082;8.816;2022-07-23T11:55:33;101822.41;;;28.88;31.03
64889;BME280;51386;53.082;8.816;2022-07-23T11:58:00;101824.56;;;28.70;31.67
64889;BME280;51386;53.082;8.816;2022-07-23T12:00:31;101826.41;;;28.60;31.58
64889;BME280;51386;53.082;8.816;2022-07-23T12:03:06;101827.47;;;28.54;31.40
64889;BME280;51386;53.082;8.816;2022-07-23T12:05:37;101840.44;;;28.42;31.57
64889;BME280;51386;53.082;8.816;2022-07-23T12:08:08;101835.78;;;28.32;31.77
64889;BME280;51386;53.082;8.816;2022-07-23T12:10:37;101833.34;;;28.26;31.74
64889;BME280;51386;53.082;8.816;2022-07-23T12:13:08;101833.31;;;28.21;32.13
64889;BME280;51386;53.082;8.816;2022-07-23T12:15:41;101830.91;;;28.24;32.71
64889;BME280;51386;53.082;8.816;2022-07-23T12:18:11;101833.91;;;28.38;33.13
64889;BME280;51386;53.082;8.816;2022-07-23T12:20:43;101841.53;;;28.41;32.76
64889;BME280;51386;53.082;8.816;2022-07-23T12:23:14;101836.66;;;28.43;32.67
64889;BME280;51386;53.082;8.816;2022-07-23T12:25:49;101838.25;;;28.44;32.81
64889;BME280;51386;53.082;8.816;2022-07-23T12:28:19;101834.84;;;28.68;32.36
64889;BME280;51386;53.082;8.816;2022-07-23T12:30:49;101829.22;;;29.25;31.61
64889;BME280;51386;53.082;8.816;2022-07-23T12:33:23;101833.50;;;29.92;31.00
64889;BME280;51386;53.082;8.816;2022-07-23T12:35:54;101826.56;;;30.25;30.38
64889;BME280;51386;53.082;8.816;2022-07-23T12:38:25;101826.47;;;30.50;29.13
64889;BME280;51386;53.082;8.816;2022-07-23T12:40:55;101830.56;;;30.47;29.17
64889;BME280;51386;53.082;8.816;2022-07-23T12:43:25;101839.91;;;30.21;29.20
64889;BME280;51386;53.082;8.816;2022-07-23T12:46:02;101831.59;;;29.87;29.54
64889;BME280;51386;53.082;8.816;2022-07-23T12:48:32;101826.47;;;29.81;28.79
64889;BME280;51386;53.082;8.816;2022-07-23T12:51:04;101826.47;;;29.81;28.92
64889;BME280;51386;53.082;8.816;2022-07-23T12:53:37;101818.56;;;29.84;29.27
64889;BME280;51386;53.082;8.816;2022-07-23T12:56:09;101819.91;;;29.97;28.41
64889;BME280;51386;53.082;8.816;2022-07-23T12:58:47;101831.59;;;29.87;28.38
64889;BME280;51386;53.082;8.816;2022-07-23T13:01:28;101832.63;;;30.06;28.59
64889;BME280;51386;53.082;8.816;2022-07-23T13:04:02;101836.44;;;30.64;28.55
64889;BME280;51386;53.082;8.816;2022-07-23T13:06:43;101844.06;;;30.62;27.29
64889;BME280;51386;53.082;8.816;2022-07-23T13:09:14;101838.47;;;30.39;28.29